createdAt,value
2018-03-22T06:58:59.667Z,100672.23
2018-03-22T07:02:02.995Z,100670.77
2018-03-22T07:05:06.324Z,100669.06
2018-03-22T07:08:09.631Z,100673.86
2018-03-22T07:11:12.961Z,100677.95
2018-03-22T07:14:16.276Z,100675.17
2018-03-22T07:17:19.606Z,100686.38
2018-03-22T07:20:22.948Z,100682.14
2018-03-22T07:23:26.290Z,100682.56
2018-03-22T07:26:29.616Z,100681.98
2018-03-22T07:29:32.947Z,100675.77
2018-03-22T07:32:37.042Z,100675.69
2018-03-22T07:35:40.362Z,100677.02
2018-03-22T07:38:43.657Z,100680.74
2018-03-22T07:41:46.987Z,100680.23
2018-03-22T07:44:50.290Z,100678.36
2018-03-22T07:47:53.625Z,100667.94
2018-03-22T07:50:56.923Z,100673.94
2018-03-22T07:54:00.236Z,100671.05
2018-03-22T07:57:03.531Z,100670.77
2018-03-22T08:00:06.848Z,100669.42
2018-03-22T08:03:19.063Z,100666.66
2018-03-22T08:06:22.375Z,100669.55
2018-03-22T08:09:25.670Z,100670.42
2018-03-22T08:12:29.014Z,100669.91
2018-03-22T08:15:32.328Z,100671.77
2018-03-22T08:18:36.447Z,100671.06
2018-03-22T08:21:39.782Z,100669.80
2018-03-22T08:24:43.094Z,100679.91
2018-03-22T08:27:46.417Z,100677.83
2018-03-22T08:30:49.743Z,100681.06
2018-03-22T08:33:53.830Z,100674.20
2018-03-22T08:36:57.147Z,100677.23
2018-03-22T08:40:00.466Z,100684.99
2018-03-22T08:43:03.807Z,100684.06
2018-03-22T08:46:07.115Z,100683.56
2018-03-22T08:49:10.447Z,100692.83
2018-03-22T08:52:13.748Z,100689.00
2018-03-22T08:55:17.075Z,100688.53
2018-03-22T08:58:20.410Z,100696.73
2018-03-22T09:01:23.735Z,100687.48
2018-03-22T09:04:27.040Z,100686.08
2018-03-22T09:07:30.365Z,100685.90
2018-03-22T09:10:33.654Z,100694.02
2018-03-22T09:13:36.982Z,100695.91
2018-03-22T09:16:40.279Z,100694.97
2018-03-22T09:19:43.593Z,100697.92
2018-03-22T09:22:46.926Z,100704.77
2018-03-22T09:25:50.230Z,100704.77
2018-03-22T09:28:53.538Z,100701.36
2018-03-22T09:31:56.832Z,100704.53
2018-03-22T09:35:00.159Z,100703.62
2018-03-22T09:38:04.270Z,100700.80
2018-03-22T09:41:07.599Z,100714.23
2018-03-22T09:44:11.665Z,100716.61
2018-03-22T09:47:14.987Z,100720.04
2018-03-22T09:50:18.303Z,100722.72
2018-03-22T09:53:22.386Z,100721.37
2018-03-22T09:56:25.703Z,100719.41
2018-03-22T09:59:29.787Z,100718.59
2018-03-22T10:02:33.104Z,100721.93
2018-03-22T10:05:36.426Z,100724.84
2018-03-22T10:08:39.748Z,100734.13
2018-03-22T10:11:43.051Z,100736.75
2018-03-22T10:14:46.369Z,100734.98
2018-03-22T10:17:49.667Z,100743.94
2018-03-22T10:20:52.982Z,100743.55
2018-03-22T10:23:56.280Z,100744.79
2018-03-22T10:26:59.591Z,100750.71
2018-03-22T10:30:03.647Z,100751.14
2018-03-22T10:33:06.967Z,100756.47
2018-03-22T10:36:10.258Z,100762.98
2018-03-22T10:39:13.571Z,100761.22
2018-03-22T10:42:16.864Z,100760.03
2018-03-22T10:45:20.174Z,100756.20
2018-03-22T10:48:23.507Z,100758.25
2018-03-22T10:51:27.551Z,100751.05
2018-03-22T10:54:30.858Z,100746.87
2018-03-22T10:57:34.162Z,100740.03
2018-03-22T11:00:38.383Z,100745.61
2018-03-22T11:03:47.060Z,100746.83
2018-03-22T11:06:50.398Z,100743.42
2018-03-22T11:09:53.693Z,100747.47
2018-03-22T11:12:57.042Z,100758.98
2018-03-22T11:16:00.365Z,100760.43
2018-03-22T11:19:03.669Z,100769.78
2018-03-22T11:22:06.999Z,100769.76
2018-03-22T11:25:10.314Z,100780.03
2018-03-22T11:28:14.403Z,100783.89
2018-03-22T11:31:17.716Z,100777.66
2018-03-22T11:34:21.781Z,100783.56
2018-03-22T11:37:25.104Z,100785.64
2018-03-22T11:40:28.410Z,100790.23
2018-03-22T11:43:31.720Z,100801.12
2018-03-22T11:46:35.798Z,100796.02
2018-03-22T11:49:39.123Z,100792.95
2018-03-22T11:52:42.414Z,100790.45
2018-03-22T11:55:45.732Z,100789.89
2018-03-22T11:58:49.785Z,100799.23
2018-03-22T12:01:53.133Z,100803.91
2018-03-22T12:04:56.411Z,100798.52
2018-03-22T12:07:59.733Z,100798.52
2018-03-22T12:11:03.860Z,100808.24
2018-03-22T12:14:07.135Z,100802.31
2018-03-22T12:17:11.213Z,100791.56
2018-03-22T12:20:14.544Z,100787.78
2018-03-22T12:23:18.615Z,100789.52
2018-03-22T12:26:21.955Z,100790.21
2018-03-22T12:29:26.014Z,100801.58
2018-03-22T12:32:29.339Z,100800.03
2018-03-22T12:35:32.635Z,100794.35
2018-03-22T12:38:35.955Z,100790.39
2018-03-22T12:41:40.038Z,100796.36
2018-03-22T12:44:43.350Z,100791.29
2018-03-22T12:47:46.667Z,100795.14
2018-03-22T12:50:50.747Z,100792.52
2018-03-22T12:53:54.063Z,100798.02
2018-03-22T12:56:57.367Z,100793.41
2018-03-22T13:00:00.674Z,100791.92
2018-03-22T13:03:03.994Z,100798.49
2018-03-22T13:06:07.321Z,100799.34
2018-03-22T13:09:10.623Z,100792.67
2018-03-22T13:12:13.938Z,100803.41
2018-03-22T13:15:17.243Z,100804.10
2018-03-22T13:18:20.563Z,100810.57
2018-03-22T13:21:23.886Z,100813.56
2018-03-22T13:24:27.205Z,100823.02
2018-03-22T13:27:30.522Z,100804.45
2018-03-22T13:30:33.815Z,100819.13
2018-03-22T13:33:37.135Z,100816.00
2018-03-22T13:36:41.199Z,100826.95
2018-03-22T13:39:44.519Z,100822.43
2018-03-22T13:42:47.824Z,100821.25
2018-03-22T13:45:51.143Z,100812.20
2018-03-22T13:48:55.207Z,100824.75
2018-03-22T13:51:58.525Z,100824.77
2018-03-22T13:55:01.858Z,100827.89
2018-03-22T13:58:05.163Z,100820.32
2018-03-22T14:01:08.483Z,100818.75
2018-03-22T14:04:11.795Z,100829.56
2018-03-22T14:07:15.142Z,100823.60
2018-03-22T14:10:18.429Z,100827.28
2018-03-22T14:13:22.514Z,100832.48
2018-03-22T14:16:25.817Z,100825.89
2018-03-22T14:19:29.139Z,100830.14
2018-03-22T14:22:33.199Z,100827.23
2018-03-22T14:25:36.514Z,100817.38
2018-03-22T14:28:39.817Z,100822.39
2018-03-22T14:31:43.134Z,100815.72
2018-03-22T14:34:47.197Z,100817.99
2018-03-22T14:37:50.511Z,100813.21
2018-03-22T14:40:53.825Z,100816.32
2018-03-22T14:43:57.155Z,100813.91
2018-03-22T14:47:00.454Z,100814.55
2018-03-22T14:50:03.773Z,100815.88
2018-03-22T14:53:07.847Z,100817.55
2018-03-22T14:56:11.914Z,100825.66
2018-03-22T14:59:15.228Z,100830.20
2018-03-22T15:02:18.538Z,100824.04
2018-03-22T15:05:21.850Z,100839.83
2018-03-22T15:08:25.933Z,100840.05
2018-03-22T15:11:29.254Z,100833.27
2018-03-22T15:14:32.553Z,100831.39
2018-03-22T15:17:35.892Z,100823.60
2018-03-22T15:20:39.195Z,100825.20
2018-03-22T15:23:42.513Z,100831.47
2018-03-22T15:26:45.826Z,100838.45
2018-03-22T15:29:49.156Z,100839.39
2018-03-22T15:32:52.450Z,100833.13
2018-03-22T15:35:55.774Z,100826.86
2018-03-22T15:38:59.072Z,100827.63
2018-03-22T15:42:02.398Z,100832.70
2018-03-22T15:45:05.700Z,100831.59
2018-03-22T15:48:09.026Z,100824.02
2018-03-22T15:51:12.334Z,100822.97
2018-03-22T15:54:15.648Z,100824.17
2018-03-22T15:57:18.955Z,100828.56
2018-03-22T16:00:22.260Z,100826.70
2018-03-22T16:03:25.579Z,100820.48
2018-03-22T16:06:28.875Z,100814.67
2018-03-22T16:09:32.190Z,100821.72
2018-03-22T16:12:35.511Z,100825.77
2018-03-22T16:15:38.818Z,100816.62
2018-03-22T16:18:42.138Z,100823.23
2018-03-22T16:21:45.454Z,100829.38
2018-03-22T16:24:48.770Z,100845.90
2018-03-22T16:27:52.855Z,100849.92
2018-03-22T16:30:56.178Z,100847.08
2018-03-22T16:33:59.498Z,100850.16
2018-03-22T16:37:02.830Z,100861.59
2018-03-22T16:40:06.148Z,100857.74
2018-03-22T16:43:09.466Z,100863.43
2018-03-22T16:46:12.788Z,100861.75
2018-03-22T16:49:16.110Z,100857.90
2018-03-22T16:52:19.412Z,100852.36
2018-03-22T16:55:22.746Z,100854.47
2018-03-22T16:58:26.043Z,100850.05
2018-03-22T17:01:29.355Z,100842.67
2018-03-22T17:04:33.423Z,100843.35
2018-03-22T17:07:36.735Z,100847.63
2018-03-22T17:10:40.055Z,100847.09
2018-03-22T17:13:44.154Z,100846.03
2018-03-22T17:16:47.483Z,100847.78
2018-03-22T17:19:50.781Z,100854.22
2018-03-22T17:22:54.087Z,100856.00
2018-03-22T17:25:57.408Z,100851.27
2018-03-22T17:29:00.736Z,100857.77
2018-03-22T17:32:04.039Z,100859.04
2018-03-22T17:35:08.126Z,100863.27
2018-03-22T17:38:11.553Z,100856.91
2018-03-22T17:41:14.928Z,100857.19
2018-03-22T17:44:18.249Z,100855.41
2018-03-22T17:47:22.331Z,100851.34
2018-03-22T17:50:26.287Z,100859.10
2018-03-22T17:53:29.784Z,100857.75
2018-03-22T17:56:33.183Z,100862.95
2018-03-22T17:59:37.267Z,100872.74
2018-03-22T18:02:40.583Z,100866.78
2018-03-22T18:05:44.755Z,100871.14
2018-03-22T18:08:48.105Z,100876.20
2018-03-22T18:11:52.237Z,100878.72
2018-03-22T18:14:55.607Z,100883.24
2018-03-22T18:17:59.737Z,100883.09
2018-03-22T18:21:03.164Z,100886.34
2018-03-22T18:24:06.510Z,100894.63
2018-03-22T18:27:09.863Z,100890.47
2018-03-22T18:30:13.236Z,100892.79
2018-03-22T18:33:17.307Z,100893.48
2018-03-22T18:36:20.680Z,100895.95
2018-03-22T18:39:23.971Z,100899.50
2018-03-22T18:42:27.423Z,100896.88
2018-03-22T18:45:30.698Z,100904.97
2018-03-22T18:48:34.044Z,100907.63
2018-03-22T18:51:37.396Z,100910.36
2018-03-22T18:54:40.738Z,100909.83
2018-03-22T18:57:44.076Z,100913.13
2018-03-22T19:00:47.398Z,100916.64
2018-03-22T19:03:50.723Z,100906.00
2018-03-22T19:06:54.817Z,100908.97
2018-03-22T19:09:58.126Z,100909.89
2018-03-22T19:13:02.224Z,100911.47
2018-03-22T19:16:05.568Z,100910.20
2018-03-22T19:19:08.883Z,100909.47
2018-03-22T19:22:12.207Z,100909.81
2018-03-22T19:25:15.543Z,100906.65
2018-03-22T19:28:18.875Z,100908.91
2018-03-22T19:31:22.188Z,100910.84
2018-03-22T19:34:25.556Z,100905.05
2018-03-22T19:37:28.844Z,100908.76
2018-03-22T19:40:32.176Z,100906.25
2018-03-22T19:43:35.519Z,100909.28
2018-03-22T19:46:38.869Z,100907.70
2018-03-22T19:49:42.203Z,100914.55
2018-03-22T19:52:46.288Z,100915.84
2018-03-22T19:55:49.640Z,100923.09
2018-03-22T19:58:52.958Z,100922.23
2018-03-22T20:01:56.297Z,100922.79
2018-03-22T20:04:59.610Z,100930.88
2018-03-22T20:08:02.946Z,100931.28
2018-03-22T20:11:06.283Z,100929.63
2018-03-22T20:14:09.607Z,100932.45
2018-03-22T20:17:12.920Z,100929.02
2018-03-22T20:20:16.239Z,100931.18
2018-03-22T20:23:19.588Z,100931.66
2018-03-22T20:26:23.656Z,100926.73
2018-03-22T20:29:26.987Z,100933.83
2018-03-22T20:32:31.067Z,100936.48
2018-03-22T20:35:34.402Z,100933.18
2018-03-22T20:38:38.475Z,100937.64
2018-03-22T20:41:41.802Z,100934.47
2018-03-22T20:44:45.128Z,100935.03
2018-03-22T20:47:48.487Z,100937.67
2018-03-22T20:50:51.814Z,100935.58
2018-03-22T20:53:55.209Z,100935.58
2018-03-22T20:56:58.586Z,100939.20
2018-03-22T21:00:01.967Z,100934.87
2018-03-22T21:03:05.309Z,100927.58
2018-03-22T21:06:08.671Z,100930.52
2018-03-22T21:09:12.029Z,100936.19
2018-03-22T21:12:15.408Z,100933.34
2018-03-22T21:15:18.744Z,100925.61
2018-03-22T21:18:22.091Z,100913.25
2018-03-22T21:21:26.187Z,100917.84
2018-03-22T21:24:29.535Z,100918.05
2018-03-22T21:27:32.914Z,100914.13
2018-03-22T21:30:36.280Z,100908.03
2018-03-22T21:33:39.690Z,100916.45
2018-03-22T21:36:43.791Z,100911.02
2018-03-22T21:39:47.186Z,100908.69
2018-03-22T21:42:50.568Z,100912.38
2018-03-22T21:45:53.905Z,100901.72
2018-03-22T21:48:57.298Z,100905.57
2018-03-22T21:52:18.975Z,100917.55
2018-03-22T21:55:22.364Z,100918.73
2018-03-22T21:58:25.709Z,100915.13
2018-03-22T22:01:29.838Z,100910.61
2018-03-22T22:04:33.947Z,100912.69
2018-03-22T22:07:38.127Z,100912.98
2018-03-22T22:10:41.468Z,100911.27
2018-03-22T22:13:45.587Z,100903.31
2018-03-22T22:16:49.000Z,100906.77
2018-03-22T22:19:52.360Z,100906.14
2018-03-22T22:22:56.476Z,100905.11
2018-03-22T22:25:59.845Z,100894.53
2018-03-22T22:29:03.168Z,100896.25
2018-03-22T22:32:06.533Z,100895.69
2018-03-22T22:35:09.895Z,100886.95
2018-03-22T22:38:13.240Z,100892.32
2018-03-22T22:41:16.583Z,100880.28
2018-03-22T22:44:19.989Z,100887.30
2018-03-22T22:47:23.322Z,100889.08
2018-03-22T22:50:26.699Z,100884.42
2018-03-22T22:53:30.051Z,100877.59
2018-03-22T22:56:33.390Z,100876.66
2018-03-22T22:59:36.756Z,100885.07
2018-03-22T23:02:40.079Z,100879.38
2018-03-22T23:05:43.415Z,100867.04
2018-03-22T23:08:46.794Z,100871.14
2018-03-22T23:11:50.144Z,100866.52
2018-03-22T23:14:53.471Z,100867.11
2018-03-22T23:17:56.808Z,100865.05
2018-03-22T23:21:00.159Z,100864.06
2018-03-22T23:24:03.539Z,100867.28
2018-03-22T23:27:06.856Z,100862.58
2018-03-22T23:30:10.212Z,100865.94
2018-03-22T23:33:13.536Z,100867.95
2018-03-22T23:36:16.876Z,100864.48
2018-03-22T23:39:20.241Z,100860.48
2018-03-22T23:42:23.566Z,100867.32
2018-03-22T23:45:26.903Z,100866.54
2018-03-22T23:48:30.235Z,100860.84
2018-03-22T23:51:33.571Z,100857.42
2018-03-22T23:54:36.948Z,100856.81
2018-03-22T23:57:40.270Z,100857.98
